sensor_id;sensor_type;location;lat;lon;timestamp;pressure;altitude;pressure_sealevel;temperature;humidity
60433;BME280;46286;48.098;11.590;2023-03-14T00:02:19;94047.63;;;8.91;100.00
60433;BME280;46286;48.098;11.590;2023-03-14T00:04:44;94039.03;;;8.99;100.00
60433;BME280;46286;48.098;11.590;2023-03-14T00:07:11;94015.06;;;8.92;100.00
60433;BME280;46286;48.098;11.590;2023-03-14T00:09:37;94012.88;;;8.71;100.00
60433;BME280;46286;48.098;11.590;2023-03-14T00:12:03;94007.25;;;8.64;100.00
60433;BME280;46286;48.098;11.590;2023-03-14T00:14:31;94034.44;;;8.68;100.00
60433;BME280;46286;48.098;11.590;2023-03-14T00:16:56;94043.75;;;8.74;100.00
60433;BME280;46286;48.098;11.590;2023-03-14T00:19:22;94044.34;;;8.71;100.00
60433;BME280;46286;48.098;11.590;2023-03-14T00:21:48;94050.75;;;8.65;100.00
60433;BME280;46286;48.098;11.590;2023-03-14T00:24:13;94033.84;;;8.57;100.00
60433;BME280;46286;48.098;11.590;2023-03-14T00:26:39;94035.19;;;8.41;100.00
60433;BME280;46286;48.098;11.590;2023-03-14T00:29:04;94022.38;;;8.39;100.00
60433;BME280;46286;48.098;11.590;2023-03-14T00:31:30;94033.06;;;8.29;100.00
60433;BME280;46286;48.098;11.590;2023-03-14T00:33:56;94037.22;;;8.16;100.00
60433;BME280;46286;48.098;11.590;2023-03-14T00:36:22;94023.34;;;8.29;100.00
60433;BME280;46286;48.098;11.590;2023-03-14T00:38:50;94026.06;;;8.38;100.00
60433;BME280;46286;48.098;11.590;2023-03-14T00:41:18;94022.75;;;8.32;100.00
60433;BME280;46286;48.098;11.590;2023-03-14T00:43:44;94022.00;;;8.32;100.00
60433;BME280;46286;48.098;11.590;2023-03-14T00:46:11;94027.03;;;8.42;100.00
60433;BME280;46286;48.098;11.590;2023-03-14T00:48:38;94031.53;;;8.56;100.00
60433;BME280;46286;48.098;11.590;2023-03-14T00:51:05;94036.97;;;8.59;100.00
60433;BME280;46286;48.098;11.590;2023-03-14T00:53:31;94034.25;;;8.64;100.00
60433;BME280;46286;48.098;11.590;2023-03-14T00:55:56;94030.94;;;8.59;100.00
60433;BME280;46286;48.098;11.590;2023-03-14T00:58:22;94045.03;;;8.63;100.00
60433;BME280;46286;48.098;11.590;2023-03-14T01:00:47;94054.84;;;8.71;100.00
60433;BME280;46286;48.098;11.590;2023-03-14T01:03:14;94055.41;;;8.68;100.00
60433;BME280;46286;48.098;11.590;2023-03-14T01:05:40;94062.19;;;8.69;100.00
60433;BME280;46286;48.098;11.590;2023-03-14T01:08:06;94067.66;;;8.59;100.00
60433;BME280;46286;48.098;11.590;2023-03-14T01:10:40;94070.97;;;8.51;100.00
60433;BME280;46286;48.098;11.590;2023-03-14T01:13:06;94084.56;;;8.53;100.00
60433;BME280;46286;48.098;11.590;2023-03-14T01:15:33;94083.97;;;8.56;100.00
60433;BME280;46286;48.098;11.590;2023-03-14T01:17:59;94087.25;;;8.47;100.00
60433;BME280;46286;48.098;11.590;2023-03-14T01:20:24;94090.16;;;8.46;100.00
60433;BME280;46286;48.098;11.590;2023-03-14T01:22:50;94089.34;;;8.31;100.00
60433;BME280;46286;48.098;11.590;2023-03-14T01:25:17;94077.22;;;8.22;100.00
60433;BME280;46286;48.098;11.590;2023-03-14T01:27:43;94070.50;;;8.15;100.00
60433;BME280;46286;48.098;11.590;2023-03-14T01:30:10;94076.38;;;8.07;100.00
60433;BME280;46286;48.098;11.590;2023-03-14T01:32:36;94075.16;;;8.05;100.00
60433;BME280;46286;48.098;11.590;2023-03-14T01:35:03;94078.13;;;7.98;100.00
60433;BME280;46286;48.098;11.590;2023-03-14T01:37:28;94069.28;;;7.94;100.00
60433;BME280;46286;48.098;11.590;2023-03-14T01:39:54;94077.25;;;7.89;100.00
60433;BME280;46286;48.098;11.590;2023-03-14T01:42:19;94077.06;;;7.99;100.00
60433;BME280;46286;48.098;11.590;2023-03-14T01:44:52;94078.78;;;7.90;100.00
60433;BME280;46286;48.098;11.590;2023-03-14T01:47:19;94077.25;;;7.89;100.00
60433;BME280;46286;48.098;11.590;2023-03-14T01:49:47;94072.78;;;7.89;100.00
60433;BME280;46286;48.098;11.590;2023-03-14T01:52:28;94078.59;;;7.86;100.00
60433;BME280;46286;48.098;11.590;2023-03-14T01:55:09;94068.28;;;7.76;100.00
60433;BME280;46286;48.098;11.590;2023-03-14T01:57:39;94082.97;;;7.91;100.00
60433;BME280;46286;48.098;11.590;2023-03-14T02:00:12;94095.47;;;7.94;100.00
60433;BME280;46286;48.098;11.590;2023-03-14T02:03:02;94106.47;;;7.96;100.00
60433;BME280;46286;48.098;11.590;2023-03-14T02:05:32;94089.25;;;7.90;100.00
60433;BME280;46286;48.098;11.590;2023-03-14T02:08:01;94091.81;;;7.95;100.00
60433;BME280;46286;48.098;11.590;2023-03-14T02:10:31;94085.16;;;7.84;100.00
60433;BME280;46286;48.098;11.590;2023-03-14T02:12:59;94085.59;;;7.91;100.00
60433;BME280;46286;48.098;11.590;2023-03-14T02:15:27;94084.59;;;7.87;100.00
60433;BME280;46286;48.098;11.590;2023-03-14T02:17:53;94091.75;;;7.81;100.00
60433;BME280;46286;48.098;11.590;2023-03-14T02:22:50;94084.84;;;7.71;100.00
60433;BME280;46286;48.098;11.590;2023-03-14T02:28:05;94074.44;;;7.66;100.00
60433;BME280;46286;48.098;11.590;2023-03-14T02:30:32;94065.03;;;7.65;100.00
60433;BME280;46286;48.098;11.590;2023-03-14T02:33:05;94054.22;;;7.53;100.00
60433;BME280;46286;48.098;11.590;2023-03-14T02:38:29;94016.19;;;7.41;100.00
60433;BME280;46286;48.098;11.590;2023-03-14T02:40:57;94013.22;;;7.29;100.00
60433;BME280;46286;48.098;11.590;2023-03-14T02:43:23;93989.19;;;7.27;100.00
60433;BME280;46286;48.098;11.590;2023-03-14T02:45:50;93980.84;;;7.25;100.00
60433;BME280;46286;48.098;11.590;2023-03-14T02:48:22;93966.47;;;7.22;100.00
60433;BME280;46286;48.098;11.590;2023-03-14T02:50:53;93964.16;;;7.21;100.00
60433;BME280;46286;48.098;11.590;2023-03-14T02:53:24;93954.97;;;7.23;100.00
60433;BME280;46286;48.098;11.590;2023-03-14T02:55:51;93955.72;;;7.24;100.00
60433;BME280;46286;48.098;11.590;2023-03-14T02:58:17;93947.41;;;7.22;100.00
60433;BME280;46286;48.098;11.590;2023-03-14T03:00:43;93947.88;;;7.24;100.00
60433;BME280;46286;48.098;11.590;2023-03-14T03:03:09;93953.41;;;7.22;100.00
60433;BME280;46286;48.098;11.590;2023-03-14T03:05:35;93935.94;;;7.18;100.00
60433;BME280;46286;48.098;11.590;2023-03-14T03:08:00;93942.47;;;7.20;100.00
60433;BME280;46286;48.098;11.590;2023-03-14T03:10:27;93925.00;;;7.16;100.00
60433;BME280;46286;48.098;11.590;2023-03-14T03:12:53;93925.38;;;7.09;100.00
60433;BME280;46286;48.098;11.590;2023-03-14T03:15:19;93932.44;;;7.08;100.00
60433;BME280;46286;48.098;11.590;2023-03-14T03:17:44;93926.72;;;7.06;100.00
60433;BME280;46286;48.098;11.590;2023-03-14T03:20:10;93927.84;;;7.00;100.00
60433;BME280;46286;48.098;11.590;2023-03-14T03:22:37;93929.97;;;6.98;100.00
60433;BME280;46286;48.098;11.590;2023-03-14T03:25:05;93925.41;;;6.90;100.00
60433;BME280;46286;48.098;11.590;2023-03-14T03:27:31;93909.78;;;6.85;100.00
60433;BME280;46286;48.098;11.590;2023-03-14T03:29:58;93916.56;;;6.86;100.00
60433;BME280;46286;48.098;11.590;2023-03-14T03:32:23;93925.47;;;6.85;100.00
60433;BME280;46286;48.098;11.590;2023-03-14T03:34:49;93926.59;;;6.79;100.00
60433;BME280;46286;48.098;11.590;2023-03-14T03:37:15;93920.03;;;6.81;100.00
60433;BME280;46286;48.098;11.590;2023-03-14T03:39:40;93933.94;;;6.76;100.00
60433;BME280;46286;48.098;11.590;2023-03-14T03:42:06;93932.81;;;6.83;100.00
60433;BME280;46286;48.098;11.590;2023-03-14T03:44:31;93907.78;;;6.76;100.00
60433;BME280;46286;48.098;11.590;2023-03-14T03:46:58;93925.63;;;6.74;100.00
60433;BME280;46286;48.098;11.590;2023-03-14T03:49:27;93931.97;;;6.68;100.00
60433;BME280;46286;48.098;11.590;2023-03-14T03:51:53;93934.44;;;6.59;100.00
60433;BME280;46286;48.098;11.590;2023-03-14T03:54:19;93934.22;;;6.56;100.00
60433;BME280;46286;48.098;11.590;2023-03-14T03:56:44;93934.16;;;6.61;100.00
60433;BME280;46286;48.098;11.590;2023-03-14T03:59:10;93919.81;;;6.58;100.00
60433;BME280;46286;48.098;11.590;2023-03-14T04:01:35;93925.34;;;6.57;100.00
60433;BME280;46286;48.098;11.590;2023-03-14T04:04:01;93916.97;;;6.55;100.00
60433;BME280;46286;48.098;11.590;2023-03-14T04:06:26;93918.53;;;6.56;100.00
60433;BME280;46286;48.098;11.590;2023-03-14T04:08:54;93918.88;;;6.49;100.00
60433;BME280;46286;48.098;11.590;2023-03-14T04:11:19;93916.56;;;6.48;100.00
60433;BME280;46286;48.098;11.590;2023-03-14T04:13:45;93918.88;;;6.49;100.00
60433;BME280;46286;48.098;11.590;2023-03-14T04:16:19;93929.13;;;6.46;100.00
60433;BME280;46286;48.098;11.590;2023-03-14T04:18:46;93919.03;;;6.39;100.00
60433;BME280;46286;48.098;11.590;2023-03-14T04:21:11;93908.94;;;6.32;100.00
60433;BME280;46286;48.098;11.590;2023-03-14T04:23:37;93907.25;;;6.41;100.00
60433;BME280;46286;48.098;11.590;2023-03-14T04:26:03;93895.31;;;6.35;100.00
60433;BME280;46286;48.098;11.590;2023-03-14T04:28:29;93897.94;;;6.35;100.00
60433;BME280;46286;48.098;11.590;2023-03-14T04:30:54;93898.69;;;6.36;100.00
60433;BME280;46286;48.098;11.590;2023-03-14T04:33:20;93884.84;;;6.35;100.00
60433;BME280;46286;48.098;11.590;2023-03-14T04:35:46;93877.78;;;6.36;100.00
60433;BME280;46286;48.098;11.590;2023-03-14T04:38:12;93881.69;;;6.38;100.00
60433;BME280;46286;48.098;11.590;2023-03-14T04:40:39;93877.78;;;6.36;100.00
60433;BME280;46286;48.098;11.590;2023-03-14T04:43:05;93873.97;;;6.28;100.00
60433;BME280;46286;48.098;11.590;2023-03-14T04:45:30;93874.47;;;6.30;100.00
60433;BME280;46286;48.098;11.590;2023-03-14T04:47:56;93884.78;;;6.40;100.00
60433;BME280;46286;48.098;11.590;2023-03-14T04:50:21;93886.34;;;6.41;100.00
60433;BME280;46286;48.098;11.590;2023-03-14T04:52:48;93868.09;;;6.36;100.00
60433;BME280;46286;48.098;11.590;2023-03-14T04:55:13;93869.66;;;6.37;100.00
60433;BME280;46286;48.098;11.590;2023-03-14T04:57:39;93860.56;;;6.35;100.00
60433;BME280;46286;48.098;11.590;2023-03-14T05:00:05;93857.41;;;6.38;100.00
60433;BME280;46286;48.098;11.590;2023-03-14T05:02:32;93853.22;;;6.37;100.00
60433;BME280;46286;48.098;11.590;2023-03-14T05:04:57;93839.88;;;6.38;100.00
60433;BME280;46286;48.098;11.590;2023-03-14T05:07:23;93851.94;;;6.34;100.00
60433;BME280;46286;48.098;11.590;2023-03-14T05:09:48;93854.91;;;6.28;100.00
60433;BME280;46286;48.098;11.590;2023-03-14T05:12:14;93848.16;;;6.27;100.00
60433;BME280;46286;48.098;11.590;2023-03-14T05:14:40;93841.56;;;6.29;100.00
60433;BME280;46286;48.098;11.590;2023-03-14T05:17:06;93843.13;;;6.30;100.00
60433;BME280;46286;48.098;11.590;2023-03-14T05:19:31;93840.31;;;6.27;100.00
60433;BME280;46286;48.098;11.590;2023-03-14T05:21:57;93836.34;;;6.29;100.00
60433;BME280;46286;48.098;11.590;2023-03-14T05:24:22;93837.88;;;6.30;100.00
60433;BME280;46286;48.098;11.590;2023-03-14T05:26:48;93847.91;;;6.23;100.00
60433;BME280;46286;48.098;11.590;2023-03-14T05:29:13;93848.91;;;6.27;100.00
60433;BME280;46286;48.098;11.590;2023-03-14T05:31:39;93846.78;;;6.29;100.00
60433;BME280;46286;48.098;11.590;2023-03-14T05:34:05;93843.13;;;6.30;100.00
60433;BME280;46286;48.098;11.590;2023-03-14T05:36:31;93858.22;;;6.33;100.00
60433;BME280;46286;48.098;11.590;2023-03-14T05:38:56;93849.91;;;6.31;100.00
60433;BME280;46286;48.098;11.590;2023-03-14T05:41:22;93843.06;;;6.35;100.00
60433;BME280;46286;48.098;11.590;2023-03-14T05:43:47;93841.00;;;6.32;100.00
60433;BME280;46286;48.098;11.590;2023-03-14T05:46:13;93838.13;;;6.34;100.00
60433;BME280;46286;48.098;11.590;2023-03-14T05:48:39;93848.16;;;6.27;100.00
60433;BME280;46286;48.098;11.590;2023-03-14T05:51:05;93842.63;;;6.28;100.00
60433;BME280;46286;48.098;11.590;2023-03-14T05:53:30;93839.44;;;6.31;100.00
60433;BME280;46286;48.098;11.590;2023-03-14T05:55:56;93838.31;;;6.37;100.00
60433;BME280;46286;48.098;11.590;2023-03-14T05:58:22;93832.09;;;6.33;100.00
60433;BME280;46286;48.098;11.590;2023-03-14T06:00:49;93827.94;;;6.32;100.00
60433;BME280;46286;48.098;11.590;2023-03-14T06:03:14;93819.69;;;6.25;100.00
60433;BME280;46286;48.098;11.590;2023-03-14T06:05:40;93821.16;;;6.31;100.00
60433;BME280;46286;48.098;11.590;2023-03-14T06:08:05;93826.16;;;6.28;100.00
60433;BME280;46286;48.098;11.590;2023-03-14T06:10:31;93820.13;;;6.32;100.00
60433;BME280;46286;48.098;11.590;2023-03-14T06:12:56;93824.84;;;6.30;100.00
60433;BME280;46286;48.098;11.590;2023-03-14T06:15:22;93822.72;;;6.32;100.00
60433;BME280;46286;48.098;11.590;2023-03-14T06:17:48;93818.28;;;6.33;100.00
60433;BME280;46286;48.098;11.590;2023-03-14T06:20:14;93826.53;;;6.40;100.00
60433;BME280;46286;48.098;11.590;2023-03-14T06:22:39;93807.69;;;6.24;100.00
60433;BME280;46286;48.098;11.590;2023-03-14T06:25:06;93822.44;;;6.34;100.00
60433;BME280;46286;48.098;11.590;2023-03-14T06:27:32;93820.03;;;6.37;100.00
60433;BME280;46286;48.098;11.590;2023-03-14T06:29:58;93813.91;;;6.28;100.00
60433;BME280;46286;48.098;11.590;2023-03-14T06:32:23;93804.44;;;6.32;100.00
60433;BME280;46286;48.098;11.590;2023-03-14T06:34:50;93787.28;;;6.26;100.00
60433;BME280;46286;48.098;11.590;2023-03-14T06:37:15;93795.09;;;6.26;100.00
60433;BME280;46286;48.098;11.590;2023-03-14T06:39:41;93784.66;;;6.26;100.00
60433;BME280;46286;48.098;11.590;2023-03-14T06:42:09;93780.78;;;6.23;100.00
60433;BME280;46286;48.098;11.590;2023-03-14T06:44:35;93782.31;;;6.24;100.00
60433;BME280;46286;48.098;11.590;2023-03-14T06:47:00;93789.81;;;6.31;100.00
60433;BME280;46286;48.098;11.590;2023-03-14T06:49:26;93799.63;;;6.39;100.00
60433;BME280;46286;48.098;11.590;2023-03-14T06:51:52;93801.03;;;6.51;100.00
60433;BME280;46286;48.098;11.590;2023-03-14T06:54:18;93802.38;;;6.48;100.00
60433;BME280;46286;48.098;11.590;2023-03-14T06:56:43;93809.34;;;6.53;100.00
60433;BME280;46286;48.098;11.590;2023-03-14T06:59:09;93813.81;;;6.52;100.00
60433;BME280;46286;48.098;11.590;2023-03-14T07:01:34;93818.25;;;6.52;100.00
60433;BME280;46286;48.098;11.590;2023-03-14T07:04:03;93819.22;;;6.56;100.00
60433;BME280;46286;48.098;11.590;2023-03-14T07:06:28;93805.69;;;6.54;100.00
60433;BME280;46286;48.098;11.590;2023-03-14T07:08:57;93824.47;;;6.56;100.00
60433;BME280;46286;48.098;11.590;2023-03-14T07:11:23;93822.34;;;6.58;100.00
60433;BME280;46286;48.098;11.590;2023-03-14T07:13:48;93816.44;;;6.66;100.00
60433;BME280;46286;48.098;11.590;2023-03-14T07:16:14;93808.63;;;6.66;100.00
60433;BME280;46286;48.098;11.590;2023-03-14T07:18:39;93819.66;;;6.63;100.00
60433;BME280;46286;48.098;11.590;2023-03-14T07:21:07;93819.06;;;6.66;100.00
60433;BME280;46286;48.098;11.590;2023-03-14T07:23:34;93822.66;;;6.70;100.00
60433;BME280;46286;48.098;11.590;2023-03-14T07:26:00;93814.81;;;6.70;100.00
60433;BME280;46286;48.098;11.590;2023-03-14T07:28:26;93812.31;;;6.65;100.00
60433;BME280;46286;48.098;11.590;2023-03-14T07:30:53;93810.75;;;6.64;100.00
60433;BME280;46286;48.098;11.590;2023-03-14T07:33:19;93825.34;;;6.84;100.00
60433;BME280;46286;48.098;11.590;2023-03-14T07:35:47;93817.38;;;6.89;100.00
60433;BME280;46286;48.098;11.590;2023-03-14T07:38:12;93815.84;;;6.88;100.00
60433;BME280;46286;48.098;11.590;2023-03-14T07:40:38;93820.56;;;6.86;100.00
60433;BME280;46286;48.098;11.590;2023-03-14T07:43:03;93812.59;;;7.10;100.00
60433;BME280;46286;48.098;11.590;2023-03-14T07:45:29;93813.75;;;7.04;100.00
60433;BME280;46286;48.098;11.590;2023-03-14T07:47:54;93802.72;;;7.07;100.00
60433;BME280;46286;48.098;11.590;2023-03-14T07:50:26;93798.66;;;7.29;100.00
60433;BME280;46286;48.098;11.590;2023-03-14T07:52:52;93805.63;;;7.34;100.00
60433;BME280;46286;48.098;11.590;2023-03-14T07:55:17;93804.69;;;7.43;100.00
60433;BME280;46286;48.098;11.590;2023-03-14T07:57:43;93800.81;;;7.55;100.00
60433;BME280;46286;48.098;11.590;2023-03-14T08:00:09;93805.84;;;7.65;100.00
60433;BME280;46286;48.098;11.590;2023-03-14T08:02:36;93805.63;;;7.75;100.00
60433;BME280;46286;48.098;11.590;2023-03-14T08:05:03;93806.13;;;7.77;100.00
60433;BME280;46286;48.098;11.590;2023-03-14T08:07:29;93797.09;;;7.84;100.00
60433;BME280;46286;48.098;11.590;2023-03-14T08:09:55;93807.66;;;7.92;100.00
60433;BME280;46286;48.098;11.590;2023-03-14T08:12:20;93800.38;;;7.89;100.00
60433;BME280;46286;48.098;11.590;2023-03-14T08:14:46;93800.75;;;7.83;100.00
60433;BME280;46286;48.098;11.590;2023-03-14T08:17:11;93787.97;;;7.81;100.00
60433;BME280;46286;48.098;11.590;2023-03-14T08:19:37;93806.88;;;7.92;100.00
60433;BME280;46286;48.098;11.590;2023-03-14T08:22:03;93810.84;;;8.03;100.00
60433;BME280;46286;48.098;11.590;2023-03-14T08:24:29;93806.97;;;8.01;100.00
60433;BME280;46286;48.098;11.590;2023-03-14T08:26:55;93814.41;;;8.07;100.00
60433;BME280;46286;48.098;11.590;2023-03-14T08:29:20;93802.47;;;8.01;100.00
60433;BME280;46286;48.098;11.590;2023-03-14T08:31:46;93821.09;;;8.13;100.00
60433;BME280;46286;48.098;11.590;2023-03-14T08:34:14;93821.41;;;8.12;100.00
60433;BME280;46286;48.098;11.590;2023-03-14T08:36:40;93820.31;;;8.13;100.00
60433;BME280;46286;48.098;11.590;2023-03-14T08:39:05;93825.53;;;8.13;100.00
60433;BME280;46286;48.098;11.590;2023-03-14T08:41:33;93842.72;;;8.19;100.00
60433;BME280;46286;48.098;11.590;2023-03-14T08:44:00;93840.28;;;8.23;100.00
60433;BME280;46286;48.098;11.590;2023-03-14T08:46:25;93840.88;;;8.20;100.00
60433;BME280;46286;48.098;11.590;2023-03-14T08:48:51;93845.28;;;8.10;100.00
60433;BME280;46286;48.098;11.590;2023-03-14T08:51:16;93844.19;;;8.11;100.00
60433;BME280;46286;48.098;11.590;2023-03-14T08:53:42;93849.22;;;8.22;100.00
60433;BME280;46286;48.098;11.590;2023-03-14T08:56:09;93845.28;;;8.33;100.00
60433;BME280;46286;48.098;11.590;2023-03-14T08:58:36;93845.06;;;8.21;100.00
60433;BME280;46286;48.098;11.590;2023-03-14T09:01:05;93848.44;;;8.21;100.00
60433;BME280;46286;48.098;11.590;2023-03-14T09:03:30;93849.78;;;8.19;100.00
60433;BME280;46286;48.098;11.590;2023-03-14T09:06:01;93840.97;;;8.14;100.00
60433;BME280;46286;48.098;11.590;2023-03-14T09:08:27;93855.41;;;8.26;100.00
60433;BME280;46286;48.098;11.590;2023-03-14T09:10:53;93857.56;;;8.24;100.00
60433;BME280;46286;48.098;11.590;2023-03-14T09:13:19;93858.53;;;8.28;100.00
60433;BME280;46286;48.098;11.590;2023-03-14T09:15:44;93857.16;;;8.30;100.00
60433;BME280;46286;48.098;11.590;2023-03-14T09:18:10;93857.72;;;8.27;100.00
60433;BME280;46286;48.098;11.590;2023-03-14T09:20:35;93854.25;;;8.32;100.00
60433;BME280;46286;48.098;11.590;2023-03-14T09:23:01;93853.06;;;8.38;100.00
60433;BME280;46286;48.098;11.590;2023-03-14T09:25:26;93854.63;;;8.39;100.00
60433;BME280;46286;48.098;11.590;2023-03-14T09:27:52;93852.69;;;8.31;100.00
60433;BME280;46286;48.098;11.590;2023-03-14T09:30:17;93856.38;;;8.30;100.00
60433;BME280;46286;48.098;11.590;2023-03-14T09:32:43;93855.41;;;8.26;100.00
60433;BME280;46286;48.098;11.590;2023-03-14T09:35:09;93854.84;;;8.29;100.00
60433;BME280;46286;48.098;11.590;2023-03-14T09:37:35;93850.16;;;8.26;100.00
60433;BME280;46286;48.098;11.590;2023-03-14T09:40:01;93841.25;;;8.27;100.00
60433;BME280;46286;48.098;11.590;2023-03-14T09:42:34;93843.41;;;8.25;100.00
60433;BME280;46286;48.098;11.590;2023-03-14T09:45:05;93831.59;;;8.13;100.00
60433;BME280;46286;48.098;11.590;2023-03-14T09:47:33;93830.38;;;8.20;100.00
60433;BME280;46286;48.098;11.590;2023-03-14T09:50:00;93831.66;;;8.22;100.00
60433;BME280;46286;48.098;11.590;2023-03-14T09:52:27;93837.19;;;8.21;100.00
60433;BME280;46286;48.098;11.590;2023-03-14T09:55:13;93836.97;;;8.31;100.00
60433;BME280;46286;48.098;11.590;2023-03-14T09:57:41;93831.25;;;8.29;100.00
60433;BME280;46286;48.098;11.590;2023-03-14T10:00:20;93821.00;;;8.41;100.00
60433;BME280;46286;48.098;11.590;2023-03-14T10:02:54;93817.53;;;8.46;100.00
60433;BME280;46286;48.098;11.590;2023-03-14T10:05:23;93811.03;;;8.43;100.00
60433;BME280;46286;48.098;11.590;2023-03-14T10:07:49;93822.16;;;8.49;100.00
60433;BME280;46286;48.098;11.590;2023-03-14T10:10:17;93819.63;;;8.58;100.00
60433;BME280;46286;48.098;11.590;2023-03-14T10:12:55;93810.97;;;8.80;100.00
60433;BME280;46286;48.098;11.590;2023-03-14T10:15:29;93812.09;;;8.88;100.00
60433;BME280;46286;48.098;11.590;2023-03-14T10:17:55;93808.00;;;8.95;100.00
60433;BME280;46286;48.098;11.590;2023-03-14T10:20:34;93809.19;;;9.21;100.00
60433;BME280;46286;48.098;11.590;2023-03-14T10:25:40;93804.69;;;9.52;100.00
60433;BME280;46286;48.098;11.590;2023-03-14T10:28:23;93809.31;;;10.31;100.00
60433;BME280;46286;48.098;11.590;2023-03-14T10:30:50;93803.78;;;10.41;100.00
60433;BME280;46286;48.098;11.590;2023-03-14T10:33:22;93796.31;;;10.87;100.00
60433;BME280;46286;48.098;11.590;2023-03-14T10:35:57;93790.63;;;10.76;100.00
60433;BME280;46286;48.098;11.590;2023-03-14T10:38:26;93784.91;;;10.65;100.00
60433;BME280;46286;48.098;11.590;2023-03-14T10:40:54;93790.44;;;10.90;100.00
60433;BME280;46286;48.098;11.590;2023-03-14T10:43:23;93790.94;;;11.31;100.00
60433;BME280;46286;48.098;11.590;2023-03-14T10:45:56;93795.56;;;11.72;100.00
60433;BME280;46286;48.098;11.590;2023-03-14T10:48:30;93795.19;;;11.14;100.00
60433;BME280;46286;48.098;11.590;2023-03-14T10:53:39;93800.00;;;11.03;100.00
60433;BME280;46286;48.098;11.590;2023-03-14T10:56:05;93795.97;;;11.06;100.00
60433;BME280;46286;48.098;11.590;2023-03-14T10:58:35;93801.31;;;10.62;100.00
60433;BME280;46286;48.098;11.590;2023-03-14T11:01:16;93799.28;;;10.68;100.00
60433;BME280;46286;48.098;11.590;2023-03-14T11:03:59;93809.22;;;10.53;100.00
60433;BME280;46286;48.098;11.590;2023-03-14T11:14:50;93795.13;;;10.49;100.00
60433;BME280;46286;48.098;11.590;2023-03-14T11:20:22;93810.75;;;10.72;100.00
60433;BME280;46286;48.098;11.590;2023-03-14T11:23:14;93794.94;;;10.89;100.00
60433;BME280;46286;48.098;11.590;2023-03-14T11:28:26;93799.09;;;10.99;100.00
60433;BME280;46286;48.098;11.590;2023-03-14T11:31:00;93787.16;;;11.02;100.00
60433;BME280;46286;48.098;11.590;2023-03-14T11:33:47;93794.75;;;11.42;100.00
60433;BME280;46286;48.098;11.590;2023-03-14T11:36:31;93775.34;;;11.85;100.00
60433;BME280;46286;48.098;11.590;2023-03-14T11:38:59;93782.22;;;12.28;100.00
60433;BME280;46286;48.098;11.590;2023-03-14T11:41:43;93783.19;;;12.45;100.00
60433;BME280;46286;48.098;11.590;2023-03-14T11:44:35;93777.19;;;11.85;98.89
60433;BME280;46286;48.098;11.590;2023-03-14T11:49:40;93780.81;;;12.10;100.00
60433;BME280;46286;48.098;11.590;2023-03-14T11:52:13;93775.22;;;11.82;100.00
60433;BME280;46286;48.098;11.590;2023-03-14T11:55:07;93785.00;;;11.42;100.00
60433;BME280;46286;48.098;11.590;2023-03-14T11:57:36;93789.22;;;11.35;100.00
60433;BME280;46286;48.098;11.590;2023-03-14T12:00:20;93781.78;;;11.37;100.00
60433;BME280;46286;48.098;11.590;2023-03-14T12:03:26;93770.22;;;11.20;100.00
60433;BME280;46286;48.098;11.590;2023-03-14T12:11:22;93785.78;;;11.43;100.00
60433;BME280;46286;48.098;11.590;2023-03-14T12:13:52;93786.06;;;11.50;100.00
60433;BME280;46286;48.098;11.590;2023-03-14T12:18:50;93769.81;;;11.78;100.00
60433;BME280;46286;48.098;11.590;2023-03-14T12:21:17;93770.69;;;11.82;100.00
60433;BME280;46286;48.098;11.590;2023-03-14T12:23:52;93772.69;;;11.94;100.00
60433;BME280;46286;48.098;11.590;2023-03-14T12:26:24;93772.25;;;11.83;100.00
60433;BME280;46286;48.098;11.590;2023-03-14T12:29:11;93774.56;;;11.85;100.00
60433;BME280;46286;48.098;11.590;2023-03-14T12:31:42;93761.91;;;11.48;99.98
60433;BME280;46286;48.098;11.590;2023-03-14T12:50:14;93780.47;;;12.87;83.60
60433;BME280;46286;48.098;11.590;2023-03-14T12:56:25;93778.31;;;13.02;84.21
60433;BME280;46286;48.098;11.590;2023-03-14T13:01:35;93762.53;;;13.88;80.32
60433;BME280;46286;48.098;11.590;2023-03-14T13:04:10;93785.59;;;13.17;83.40
60433;BME280;46286;48.098;11.590;2023-03-14T13:06:53;93784.00;;;12.37;95.52
60433;BME280;46286;48.098;11.590;2023-03-14T13:11:51;93793.97;;;11.80;94.39
60433;BME280;46286;48.098;11.590;2023-03-14T13:14:18;93788.06;;;11.83;94.83
60433;BME280;46286;48.098;11.590;2023-03-14T13:16:44;93779.13;;;12.26;95.60
60433;BME280;46286;48.098;11.590;2023-03-14T13:19:24;93811.63;;;12.60;84.33
60433;BME280;46286;48.098;11.590;2023-03-14T13:21:51;93789.84;;;12.97;83.98
60433;BME280;46286;48.098;11.590;2023-03-14T13:24:27;93799.22;;;13.07;83.07
60433;BME280;46286;48.098;11.590;2023-03-14T13:26:54;93819.13;;;12.50;89.27
60433;BME280;46286;48.098;11.590;2023-03-14T13:29:22;93801.84;;;11.89;88.29
60433;BME280;46286;48.098;11.590;2023-03-14T13:32:00;93823.25;;;12.17;88.90
60433;BME280;46286;48.098;11.590;2023-03-14T13:34:29;93824.28;;;11.65;89.85
60433;BME280;46286;48.098;11.590;2023-03-14T13:36:55;93835.44;;;11.06;98.18
60433;BME280;46286;48.098;11.590;2023-03-14T13:39:23;93835.47;;;10.88;98.90
60433;BME280;46286;48.098;11.590;2023-03-14T13:41:54;93848.97;;;10.69;100.00
60433;BME280;46286;48.098;11.590;2023-03-14T13:44:36;93860.25;;;10.35;100.00
60433;BME280;46286;48.098;11.590;2023-03-14T13:47:04;93855.59;;;10.32;100.00
60433;BME280;46286;48.098;11.590;2023-03-14T13:49:33;93857.09;;;10.33;100.00
60433;BME280;46286;48.098;11.590;2023-03-14T13:52:01;93864.72;;;9.85;100.00
60433;BME280;46286;48.098;11.590;2023-03-14T13:54:27;93886.63;;;9.72;100.00
60433;BME280;46286;48.098;11.590;2023-03-14T13:57:01;93891.91;;;9.72;100.00